Time;durP1;ratioP1;P1;durP2;ratioP2;P2;SDS_P1;SDS_P2;PMS_P1;PMS_P2;Temp;Humidity;BMP_temperature;BMP_pressure;BME280_temperature;BME280_humidity;BME280_pressure;Samples;Min_cycle;Max_cycle;Signal;HPM_P1;HPM_P2
2021/08/19 00:01:07;;;;;;;5.18;1.50;;;18.90;93.00;;;;;;5099807;28;20027;-82
2021/08/19 00:03:32;;;;;;;2.75;1.60;;;18.80;93.20;;;;;;5103285;28;20044;-82
2021/08/19 00:05:58;;;;;;;1.90;1.65;;;18.80;93.20;;;;;;5084271;28;20055;-82
2021/08/19 00:08:23;;;;;;;3.55;1.80;;;18.80;93.20;;;;;;5087141;28;20067;-82
2021/08/19 00:10:49;;;;;;;2.28;1.85;;;18.70;93.20;;;;;;5100623;28;20050;-82
2021/08/19 00:13:14;;;;;;;1.88;1.67;;;18.70;93.30;;;;;;5102218;28;20366;-82
2021/08/19 00:15:40;;;;;;;2.03;1.75;;;18.60;93.50;;;;;;5099967;28;20043;-83
2021/08/19 00:18:06;;;;;;;2.42;1.60;;;18.60;93.40;;;;;;5097612;28;20368;-82
2021/08/19 00:20:32;;;;;;;2.65;2.15;;;18.60;93.50;;;;;;5102401;28;20043;-82
2021/08/19 00:22:59;;;;;;;2.55;2.03;;;18.60;93.40;;;;;;5102775;28;20060;-82
2021/08/19 00:25:25;;;;;;;2.55;1.88;;;18.60;93.40;;;;;;5098963;28;20114;-82
2021/08/19 00:27:51;;;;;;;2.15;1.80;;;18.60;93.40;;;;;;5096025;28;20126;-81
2021/08/19 00:30:16;;;;;;;3.25;2.55;;;18.50;93.40;;;;;;5106192;28;20054;-81
2021/08/19 00:32:42;;;;;;;2.33;2.00;;;18.60;93.30;;;;;;5114202;28;20039;-82
2021/08/19 00:35:08;;;;;;;3.15;2.10;;;18.50;93.40;;;;;;5081960;28;20055;-82
2021/08/19 00:37:33;;;;;;;2.10;1.83;;;18.50;93.70;;;;;;5095528;28;20131;-82
2021/08/19 00:40:00;;;;;;;2.63;1.98;;;18.50;93.60;;;;;;5097951;28;20153;-82
2021/08/19 00:42:25;;;;;;;5.72;1.88;;;18.50;93.50;;;;;;5103116;28;20039;-83
2021/08/19 00:44:51;;;;;;;2.00;1.70;;;18.50;93.50;;;;;;5110522;28;20051;-82
2021/08/19 00:47:16;;;;;;;3.05;2.67;;;18.50;93.60;;;;;;5100065;28;20447;-82
2021/08/19 00:49:43;;;;;;;2.25;2.00;;;18.50;93.40;;;;;;5096487;28;20070;-85
2021/08/19 00:52:11;;;;;;;2.53;2.33;;;18.60;93.50;;;;;;5109060;28;20325;-85
2021/08/19 00:54:37;;;;;;;3.13;2.42;;;18.60;93.50;;;;;;5099067;28;20036;-82
2021/08/19 00:57:05;;;;;;;2.30;1.92;;;18.50;93.40;;;;;;5102403;28;20401;-82
2021/08/19 00:59:37;;;;;;;2.58;1.95;;;18.50;93.40;;;;;;5105041;28;20347;-82
2021/08/19 01:02:03;;;;;;;;;;;18.50;93.60;;;;;;5103651;28;20051;-83
2021/08/19 01:04:30;;;;;;;2.00;1.65;;;18.50;93.50;;;;;;5098995;28;19912;-82
2021/08/19 01:06:56;;;;;;;2.70;2.17;;;18.50;93.60;;;;;;5095799;28;20036;-82
2021/08/19 01:09:22;;;;;;;2.72;2.15;;;18.40;93.70;;;;;;5097561;28;20043;-83
2021/08/19 01:11:48;;;;;;;2.55;1.70;;;18.40;93.70;;;;;;5101336;28;20385;-82
2021/08/19 01:14:14;;;;;;;2.45;2.08;;;18.50;93.80;;;;;;5101329;28;20099;-82
2021/08/19 01:16:41;;;;;;;2.97;2.45;;;18.60;93.60;;;;;;5104613;28;20431;-82
2021/08/19 01:19:07;;;;;;;3.60;2.40;;;18.50;93.50;;;;;;5108759;28;20036;-82
2021/08/19 01:21:32;;;;;;;7.00;2.03;;;18.50;93.60;;;;;;5114354;28;20059;-82
2021/08/19 01:23:58;;;;;;;4.20;2.17;;;18.50;93.60;;;;;;5099625;28;20050;-82
2021/08/19 01:26:24;;;;;;;3.72;2.60;;;18.50;93.60;;;;;;5096846;28;20040;-82
2021/08/19 01:28:49;;;;;;;3.17;2.33;;;18.60;93.60;;;;;;5096183;28;20028;-83
2021/08/19 01:31:18;;;;;;;3.85;2.63;;;18.60;93.50;;;;;;5098074;28;20114;-83
2021/08/19 01:33:45;;;;;;;2.70;2.40;;;18.60;93.50;;;;;;5095150;28;20097;-82
2021/08/19 01:36:12;;;;;;;3.45;2.78;;;18.60;93.70;;;;;;5084370;28;20115;-83
2021/08/19 01:38:39;;;;;;;2.92;2.63;;;18.50;93.70;;;;;;5090974;28;20346;-82
2021/08/19 01:41:04;;;;;;;2.95;2.65;;;18.50;93.60;;;;;;5096222;28;20046;-84
2021/08/19 01:43:31;;;;;;;5.20;3.53;;;18.50;93.60;;;;;;5097200;28;20123;-82
2021/08/19 01:46:10;;;;;;;3.38;2.65;;;18.50;93.70;;;;;;5100311;28;20067;-82
2021/08/19 01:48:38;;;;;;;4.35;2.65;;;18.50;93.80;;;;;;5098746;28;20043;-83
2021/08/19 01:51:04;;;;;;;3.20;2.90;;;18.50;93.60;;;;;;5094467;28;20040;-82
2021/08/19 01:53:29;;;;;;;2.80;2.55;;;18.50;93.60;;;;;;5105062;28;20081;-82
2021/08/19 01:55:55;;;;;;;3.17;2.50;;;18.50;93.70;;;;;;5102424;28;20044;-83
2021/08/19 01:58:21;;;;;;;5.55;2.65;;;18.50;93.70;;;;;;5097348;28;20401;-83
2021/08/19 02:00:47;;;;;;;3.38;2.53;;;18.50;93.80;;;;;;5100750;28;20059;-83
2021/08/19 02:03:13;;;;;;;4.35;2.67;;;18.50;93.80;;;;;;5121636;28;20091;-83
2021/08/19 02:05:39;;;;;;;2.88;2.55;;;18.50;93.80;;;;;;5084501;28;20082;-83
2021/08/19 02:08:05;;;;;;;3.03;2.72;;;18.50;93.70;;;;;;5087306;28;20035;-83
2021/08/19 02:10:31;;;;;;;2.85;2.50;;;18.50;93.90;;;;;;5100008;28;20039;-81
2021/08/19 02:12:57;;;;;;;3.42;2.42;;;18.50;93.90;;;;;;5104929;28;20390;-83
2021/08/19 02:15:22;;;;;;;3.88;2.70;;;18.50;93.80;;;;;;5097151;28;20054;-83
2021/08/19 02:17:47;;;;;;;3.83;2.33;;;18.50;93.90;;;;;;5095381;28;20130;-82
2021/08/19 02:20:13;;;;;;;3.25;2.40;;;18.50;93.80;;;;;;5104996;28;20036;-83
2021/08/19 02:22:38;;;;;;;2.63;2.30;;;18.50;93.80;;;;;;5104299;28;20154;-83
2021/08/19 02:25:04;;;;;;;2.92;2.58;;;18.40;93.90;;;;;;5080539;28;20040;-83
2021/08/19 02:27:30;;;;;;;2.78;2.50;;;18.40;94.00;;;;;;5103331;28;20039;-83
2021/08/19 02:29:55;;;;;;;4.18;2.92;;;18.40;93.90;;;;;;5105615;28;20282;-83
2021/08/19 02:32:22;;;;;;;2.78;2.58;;;18.40;93.90;;;;;;5101933;28;20046;-83
2021/08/19 02:34:47;;;;;;;3.35;2.67;;;18.40;93.90;;;;;;5081768;28;20044;-83
2021/08/19 02:37:13;;;;;;;3.67;2.70;;;18.40;94.00;;;;;;5076910;28;20119;-82
2021/08/19 02:39:38;;;;;;;3.05;2.33;;;18.40;94.00;;;;;;5093117;28;20036;-82
2021/08/19 02:42:04;;;;;;;2.70;2.17;;;18.40;94.00;;;;;;5106021;28;20043;-83
2021/08/19 02:44:29;;;;;;;2.90;2.60;;;18.40;94.00;;;;;;5098212;28;20113;-82
2021/08/19 02:46:55;;;;;;;4.32;2.40;;;18.30;94.10;;;;;;5100662;28;20298;-83
2021/08/19 02:49:20;;;;;;;3.45;2.35;;;18.30;94.20;;;;;;5091091;28;20044;-83
2021/08/19 02:51:46;;;;;;;2.88;2.47;;;18.30;94.10;;;;;;5109215;28;20047;-83
2021/08/19 02:54:11;;;;;;;3.35;2.58;;;18.30;94.20;;;;;;5105277;28;20051;-82
2021/08/19 02:56:38;;;;;;;5.30;2.70;;;18.30;94.30;;;;;;5106144;28;20047;-83
2021/08/19 02:59:04;;;;;;;2.95;2.60;;;18.20;94.40;;;;;;5103553;28;20523;-82
2021/08/19 03:01:29;;;;;;;3.72;2.72;;;18.20;94.30;;;;;;5104201;28;20043;-82
2021/08/19 03:03:55;;;;;;;3.55;2.58;;;18.30;94.30;;;;;;5102401;28;20059;-83
2021/08/19 03:06:20;;;;;;;2.72;2.22;;;18.30;94.30;;;;;;5093987;28;20032;-83
2021/08/19 03:08:46;;;;;;;2.47;2.28;;;18.30;94.20;;;;;;5085501;28;20301;-83
2021/08/19 03:11:11;;;;;;;2.58;2.10;;;18.30;94.30;;;;;;5083793;28;20036;-83
2021/08/19 03:13:37;;;;;;;4.97;3.17;;;18.30;94.20;;;;;;5090802;28;20073;-83
2021/08/19 03:16:02;;;;;;;3.28;2.97;;;18.30;94.20;;;;;;5112249;28;20043;-83
2021/08/19 03:18:28;;;;;;;2.22;1.90;;;18.30;94.20;;;;;;5106390;28;20057;-83
2021/08/19 03:20:53;;;;;;;2.97;2.30;;;18.30;94.20;;;;;;5092108;28;20060;-84
2021/08/19 03:23:19;;;;;;;2.85;2.15;;;18.30;94.30;;;;;;5094597;28;20028;-82
2021/08/19 03:25:44;;;;;;;3.20;2.50;;;18.30;94.30;;;;;;5108621;28;20462;-82
2021/08/19 03:28:12;;;;;;;2.70;2.05;;;18.40;94.40;;;;;;5094593;28;20055;-82
2021/08/19 03:30:37;;;;;;;3.72;2.40;;;18.40;94.20;;;;;;5112200;28;20097;-84
2021/08/19 03:33:05;;;;;;;3.40;2.83;;;18.40;94.20;;;;;;5113791;28;20650;-84
2021/08/19 03:35:31;;;;;;;2.88;2.30;;;18.30;94.10;;;;;;5097257;28;20099;-84
2021/08/19 03:37:56;;;;;;;4.43;2.80;;;18.40;94.10;;;;;;5100214;28;20036;-84
2021/08/19 03:40:22;;;;;;;5.35;2.22;;;18.40;94.10;;;;;;5103555;28;20039;-84
2021/08/19 03:42:47;;;;;;;3.22;2.72;;;18.30;94.20;;;;;;5104235;28;20043;-84
2021/08/19 03:45:15;;;;;;;3.40;2.65;;;18.20;94.20;;;;;;5113909;28;20758;-84
2021/08/19 03:47:41;;;;;;;2.95;2.42;;;18.30;94.30;;;;;;5120084;27;20051;-84
2021/08/19 03:50:09;;;;;;;2.90;2.55;;;18.30;94.40;;;;;;5102905;28;20027;-84
2021/08/19 03:52:35;;;;;;;2.95;2.45;;;18.30;94.30;;;;;;5103566;28;20054;-84
2021/08/19 03:55:01;;;;;;;5.05;2.72;;;18.30;94.20;;;;;;5113362;28;20039;-84
2021/08/19 03:57:26;;;;;;;3.40;3.00;;;18.30;94.30;;;;;;5105344;28;20028;-84
2021/08/19 03:59:52;;;;;;;3.25;2.95;;;18.30;94.20;;;;;;5098673;28;20086;-83
2021/08/19 04:02:17;;;;;;;4.68;3.20;;;18.30;94.20;;;;;;5099425;28;20035;-85
2021/08/19 04:04:43;;;;;;;3.80;3.15;;;18.30;94.20;;;;;;5095067;28;20052;-85
2021/08/19 04:07:08;;;;;;;3.70;3.13;;;18.30;94.10;;;;;;5095045;28;20047;-84
2021/08/19 04:09:34;;;;;;;3.25;2.95;;;18.30;94.20;;;;;;5100379;28;20045;-84
2021/08/19 04:12:00;;;;;;;5.57;3.08;;;18.30;94.20;;;;;;5098158;28;20079;-84
2021/08/19 04:14:25;;;;;;;6.68;3.40;;;18.30;94.20;;;;;;5101515;28;20040;-84
2021/08/19 04:16:51;;;;;;;5.15;3.03;;;18.30;94.10;;;;;;5115789;28;20069;-85
2021/08/19 04:19:16;;;;;;;3.20;2.90;;;18.40;94.10;;;;;;5112670;28;20041;-84
2021/08/19 04:21:42;;;;;;;3.65;2.47;;;18.30;94.10;;;;;;5104395;28;20594;-85
2021/08/19 04:24:07;;;;;;;3.08;2.40;;;18.40;94.10;;;;;;5118391;28;20055;-84
2021/08/19 04:26:33;;;;;;;4.20;2.70;;;18.40;94.00;;;;;;5116963;28;20043;-84
2021/08/19 04:28:58;;;;;;;7.80;2.78;;;18.40;94.10;;;;;;5111182;28;20135;-84
2021/08/19 04:31:24;;;;;;;3.45;2.60;;;18.40;93.90;;;;;;5101751;28;20417;-84
2021/08/19 04:33:49;;;;;;;4.07;2.40;;;18.50;93.90;;;;;;5094779;28;20054;-85
2021/08/19 04:36:15;;;;;;;3.38;2.92;;;18.40;94.00;;;;;;5102402;27;20078;-84
2021/08/19 04:38:40;;;;;;;3.75;2.50;;;18.40;94.00;;;;;;5104777;28;20032;-84
2021/08/19 04:41:05;;;;;;;3.13;2.47;;;18.40;93.90;;;;;;5095710;28;20067;-85
2021/08/19 04:43:31;;;;;;;6.85;2.70;;;18.40;93.80;;;;;;5095822;28;20287;-84
2021/08/19 04:45:57;;;;;;;3.53;2.30;;;18.40;94.00;;;;;;5097987;28;20052;-84
2021/08/19 04:48:22;;;;;;;2.95;2.40;;;18.40;94.00;;;;;;5097998;28;20036;-84
2021/08/19 04:50:48;;;;;;;4.45;2.78;;;18.50;93.80;;;;;;5098281;28;20040;-83
2021/08/19 04:53:13;;;;;;;2.83;2.53;;;18.50;93.50;;;;;;5094281;28;20068;-84
2021/08/19 04:55:39;;;;;;;4.03;2.72;;;18.50;93.70;;;;;;5091483;28;20043;-84
2021/08/19 04:58:05;;;;;;;4.75;2.67;;;18.60;93.60;;;;;;5096113;28;20028;-84
2021/08/19 05:00:31;;;;;;;3.33;2.55;;;18.60;93.60;;;;;;5081148;28;20127;-83
2021/08/19 05:02:56;;;;;;;4.80;2.47;;;18.60;93.50;;;;;;5101962;28;20119;-84
2021/08/19 05:05:22;;;;;;;3.75;2.90;;;18.60;93.50;;;;;;5082382;28;20062;-83
2021/08/19 05:07:47;;;;;;;6.53;2.78;;;18.60;93.50;;;;;;5080758;28;20040;-84
2021/08/19 05:10:13;;;;;;;3.03;2.72;;;18.60;93.60;;;;;;5080760;28;20055;-83
2021/08/19 05:12:38;;;;;;;3.65;3.20;;;18.60;93.70;;;;;;5088245;28;20036;-84
2021/08/19 05:15:04;;;;;;;4.57;3.17;;;18.60;93.60;;;;;;5091327;28;20043;-83
2021/08/19 05:17:30;;;;;;;4.50;2.95;;;18.60;93.70;;;;;;5095316;28;20097;-82
2021/08/19 05:19:55;;;;;;;4.65;3.38;;;18.60;93.70;;;;;;5107969;28;20480;-82
2021/08/19 05:22:21;;;;;;;3.50;3.20;;;18.70;93.70;;;;;;5113687;28;20063;-84
2021/08/19 05:24:46;;;;;;;4.18;2.67;;;18.70;93.80;;;;;;5104510;28;20044;-83
2021/08/19 05:27:13;;;;;;;6.30;3.15;;;18.70;93.90;;;;;;5095774;28;21416;-83
2021/08/19 05:29:38;;;;;;;5.10;3.35;;;18.70;93.60;;;;;;5094006;28;20052;-83
2021/08/19 05:32:04;;;;;;;3.63;2.83;;;18.70;93.80;;;;;;5096192;28;20100;-83
2021/08/19 05:34:29;;;;;;;4.28;3.05;;;18.80;93.80;;;;;;5092800;28;20040;-83
2021/08/19 05:36:55;;;;;;;3.92;3.53;;;18.80;93.60;;;;;;5075590;28;20081;-84
2021/08/19 05:39:20;;;;;;;3.53;3.22;;;18.90;93.80;;;;;;5092561;28;20069;-83
2021/08/19 05:41:46;;;;;;;4.03;3.22;;;18.90;93.60;;;;;;5118453;28;20040;-83
2021/08/19 05:44:12;;;;;;;3.78;3.20;;;18.90;93.60;;;;;;5112570;28;20036;-83
2021/08/19 05:46:41;;;;;;;4.55;3.42;;;18.90;93.60;;;;;;5100244;28;20090;-83
2021/08/19 05:49:07;;;;;;;7.30;3.45;;;18.90;93.70;;;;;;5095532;28;20035;-84
2021/08/19 05:51:33;;;;;;;4.20;3.15;;;18.80;93.60;;;;;;5096435;28;20136;-83
2021/08/19 05:53:59;;;;;;;3.78;2.95;;;18.80;93.70;;;;;;5088974;28;20075;-83
2021/08/19 05:56:24;;;;;;;3.92;3.17;;;18.80;93.60;;;;;;5102769;28;20039;-82
2021/08/19 05:58:50;;;;;;;4.47;3.08;;;18.90;93.60;;;;;;5101295;28;20410;-84
2021/08/19 06:01:15;;;;;;;5.13;2.78;;;18.90;93.40;;;;;;5085546;28;20367;-85
2021/08/19 06:03:41;;;;;;;7.75;3.22;;;18.90;93.60;;;;;;5092899;28;20040;-83
2021/08/19 06:06:06;;;;;;;3.83;3.20;;;18.90;93.60;;;;;;5093958;28;20036;-83
2021/08/19 06:08:32;;;;;;;3.78;2.58;;;19.00;93.60;;;;;;5082107;28;20042;-84
2021/08/19 06:10:57;;;;;;;3.83;3.03;;;19.00;93.60;;;;;;5089789;28;20035;-83
2021/08/19 06:13:23;;;;;;;3.88;2.70;;;19.10;93.40;;;;;;5091807;28;20040;-85
2021/08/19 06:15:48;;;;;;;4.40;3.00;;;19.10;93.40;;;;;;5087680;28;20090;-84
2021/08/19 06:18:14;;;;;;;4.45;3.20;;;19.10;93.40;;;;;;5090220;28;20040;-83
2021/08/19 06:20:39;;;;;;;3.60;3.00;;;19.10;93.40;;;;;;5087302;28;20052;-84
2021/08/19 06:23:11;;;;;;;3.75;2.92;;;19.10;93.30;;;;;;5102418;28;20118;-84
2021/08/19 06:25:38;;;;;;;3.08;2.78;;;19.10;93.50;;;;;;5095656;28;20041;-84
2021/08/19 06:28:04;;;;;;;4.63;3.17;;;19.10;93.40;;;;;;5094378;28;20119;-83
2021/08/19 06:30:32;;;;;;;5.57;3.03;;;19.20;93.10;;;;;;5087724;28;20276;-84
2021/08/19 06:32:58;;;;;;;4.55;2.50;;;19.20;93.00;;;;;;5085967;28;20040;-83
2021/08/19 06:35:23;;;;;;;3.15;2.70;;;19.20;93.10;;;;;;5081423;28;20070;-84
2021/08/19 06:37:49;;;;;;;3.15;2.38;;;19.30;93.20;;;;;;5088306;28;20507;-83
2021/08/19 06:40:14;;;;;;;3.35;2.55;;;19.30;93.10;;;;;;5088395;28;20764;-85
2021/08/19 06:42:40;;;;;;;5.45;3.17;;;19.30;93.00;;;;;;5091371;28;20480;-86
2021/08/19 06:45:06;;;;;;;2.90;2.42;;;19.30;93.00;;;;;;5095572;28;20119;-83
2021/08/19 06:47:31;;;;;;;3.33;2.67;;;19.30;92.90;;;;;;5106550;28;20070;-83
2021/08/19 06:49:57;;;;;;;3.78;2.65;;;19.30;93.00;;;;;;5099330;28;20082;-83
2021/08/19 06:52:22;;;;;;;4.97;2.80;;;19.20;93.00;;;;;;5112000;28;20052;-83
2021/08/19 06:54:48;;;;;;;3.38;2.67;;;19.30;93.00;;;;;;5117261;28;20043;-83
2021/08/19 06:57:13;;;;;;;6.60;2.58;;;19.30;93.10;;;;;;5115866;28;20077;-83
2021/08/19 06:59:39;;;;;;;5.20;2.90;;;19.20;92.80;;;;;;5116176;28;20039;-83
2021/08/19 07:02:04;;;;;;;5.18;2.65;;;19.20;93.10;;;;;;5120622;28;20040;-83
2021/08/19 07:04:29;;;;;;;4.30;2.50;;;19.30;93.10;;;;;;5102487;28;20306;-83
2021/08/19 07:06:55;;;;;;;4.15;3.33;;;19.30;93.20;;;;;;5108585;28;20071;-82
2021/08/19 07:09:21;;;;;;;3.53;2.92;;;19.30;93.10;;;;;;5103428;28;20035;-83
2021/08/19 07:11:46;;;;;;;5.07;3.45;;;19.30;93.10;;;;;;5104140;28;20046;-84
2021/08/19 07:14:12;;;;;;;3.78;2.80;;;19.30;93.20;;;;;;5116662;28;20043;-83
2021/08/19 07:16:38;;;;;;;3.72;2.60;;;19.30;93.00;;;;;;5135048;27;20043;-83
2021/08/19 07:19:05;;;;;;;3.35;2.42;;;19.30;92.90;;;;;;5101365;27;20147;-83
2021/08/19 07:21:30;;;;;;;5.80;2.70;;;19.40;92.90;;;;;;5096991;28;20036;-82
2021/08/19 07:23:55;;;;;;;2.72;2.33;;;19.30;93.00;;;;;;5109943;28;20050;-83
2021/08/19 07:26:22;;;;;;;2.70;2.35;;;19.40;92.90;;;;;;5114499;28;20401;-82
2021/08/19 07:28:49;;;;;;;3.13;2.83;;;19.40;92.90;;;;;;5112000;28;20118;-83
2021/08/19 07:31:15;;;;;;;3.60;2.70;;;19.40;92.80;;;;;;5112116;28;20039;-82
2021/08/19 07:33:41;;;;;;;2.78;2.45;;;19.40;92.90;;;;;;5113711;28;20043;-82
2021/08/19 07:36:07;;;;;;;3.92;3.08;;;19.40;93.10;;;;;;5081820;28;20090;-83
2021/08/19 07:38:32;;;;;;;3.05;2.65;;;19.40;93.00;;;;;;5079796;28;20032;-82
2021/08/19 07:40:58;;;;;;;3.08;2.60;;;19.40;93.10;;;;;;5105239;28;20036;-83
2021/08/19 07:43:23;;;;;;;3.88;2.70;;;19.40;92.90;;;;;;5116589;28;20035;-85
2021/08/19 07:45:50;;;;;;;3.03;2.20;;;19.30;92.80;;;;;;5098920;28;20116;-86
2021/08/19 07:48:16;;;;;;;3.58;2.88;;;19.40;92.90;;;;;;5110302;28;20293;-85
2021/08/19 07:50:42;;;;;;;3.88;2.58;;;19.40;93.00;;;;;;5112764;28;20035;-81
2021/08/19 07:53:08;;;;;;;8.65;2.47;;;19.50;93.00;;;;;;5105755;28;20067;-81
2021/08/19 07:55:34;;;;;;;3.13;2.50;;;19.50;92.90;;;;;;5113528;28;20074;-82
2021/08/19 07:58:00;;;;;;;3.13;2.20;;;19.60;92.70;;;;;;5098637;28;20044;-81
2021/08/19 08:00:28;;;;;;;4.32;3.08;;;19.60;92.80;;;;;;5075866;28;20037;-81
2021/08/19 08:02:54;;;;;;;6.72;2.40;;;19.60;92.80;;;;;;5097166;28;20417;-82
2021/08/19 08:05:21;;;;;;;3.33;2.28;;;19.70;92.80;;;;;;5088608;28;20044;-81
2021/08/19 08:07:47;;;;;;;7.40;2.40;;;19.80;92.50;;;;;;5076443;28;20032;-82
2021/08/19 08:10:13;;;;;;;4.93;2.33;;;19.80;92.40;;;;;;5089393;28;20070;-81
2021/08/19 08:12:38;;;;;;;3.70;2.28;;;19.90;92.50;;;;;;5089072;28;20335;-82
2021/08/19 08:15:05;;;;;;;3.13;2.05;;;19.90;92.30;;;;;;5088778;28;20126;-82
2021/08/19 08:17:36;;;;;;;4.75;2.15;;;19.90;92.40;;;;;;5113119;28;20044;-81
2021/08/19 08:20:05;;;;;;;3.25;2.05;;;19.90;92.40;;;;;;5114797;28;20052;-82
2021/08/19 08:22:30;;;;;;;2.88;1.80;;;19.90;92.60;;;;;;5088405;28;20147;-81
2021/08/19 08:24:56;;;;;;;3.72;2.00;;;19.90;92.50;;;;;;5096306;28;20442;-82
2021/08/19 08:27:21;;;;;;;3.47;2.13;;;20.00;92.40;;;;;;5103141;28;20045;-82
2021/08/19 08:29:47;;;;;;;2.42;1.60;;;20.00;92.20;;;;;;5109847;28;20032;-82
2021/08/19 08:32:12;;;;;;;2.20;1.75;;;20.00;92.40;;;;;;5086270;28;20037;-81
2021/08/19 08:34:39;;;;;;;3.22;1.80;;;20.10;92.40;;;;;;5103334;28;20123;-82
2021/08/19 08:37:06;;;;;;;2.58;1.85;;;20.20;92.70;;;;;;5089897;28;20527;-82
2021/08/19 08:39:34;;;;;;;4.15;2.30;;;20.30;92.20;;;;;;5103142;28;20040;-82
2021/08/19 08:42:00;;;;;;;2.78;1.52;;;20.40;92.10;;;;;;5108783;28;20047;-83
2021/08/19 08:44:29;;;;;;;3.97;1.45;;;20.60;92.00;;;;;;5104483;28;20548;-83
2021/08/19 08:46:56;;;;;;;4.95;1.80;;;20.80;91.80;;;;;;5093747;28;20119;-82
2021/08/19 08:49:25;;;;;;;3.50;1.73;;;21.00;91.50;;;;;;5095121;28;20032;-83
2021/08/19 08:51:56;;;;;;;7.13;1.90;;;21.20;91.30;;;;;;5093465;28;20070;-82
2021/08/19 08:54:22;;;;;;;2.60;2.20;;;21.40;90.80;;;;;;5098511;28;20096;-83
2021/08/19 08:56:48;;;;;;;4.93;2.17;;;21.50;90.50;;;;;;5104385;28;20340;-84
2021/08/19 08:59:13;;;;;;;9.98;2.10;;;21.50;90.20;;;;;;5106377;28;20039;-83
2021/08/19 09:01:39;;;;;;;2.30;1.73;;;21.50;90.30;;;;;;5113194;28;20357;-82
2021/08/19 09:04:05;;;;;;;2.65;1.70;;;21.50;90.70;;;;;;5111639;28;20040;-83
2021/08/19 09:06:38;;;;;;;3.63;2.17;;;21.50;91.00;;;;;;5097972;28;20039;-83
2021/08/19 09:09:25;;;;;;;2.78;2.08;;;21.50;90.90;;;;;;5092165;28;20429;-83
2021/08/19 09:12:04;;;;;;;2.70;2.35;;;21.60;90.70;;;;;;5104928;28;20454;-83
2021/08/19 09:14:32;;;;;;;3.67;2.25;;;21.60;90.30;;;;;;5098017;28;20040;-83
2021/08/19 09:16:58;;;;;;;3.20;2.53;;;21.70;90.60;;;;;;5091799;28;20711;-82
2021/08/19 09:19:29;;;;;;;3.10;2.15;;;21.60;90.50;;;;;;5104208;28;20507;-82
2021/08/19 09:22:06;;;;;;;4.65;2.10;;;21.50;90.80;;;;;;5090719;28;20397;-83
2021/08/19 09:24:34;;;;;;;2.58;1.80;;;21.60;90.30;;;;;;5099043;28;20051;-82
2021/08/19 09:27:11;;;;;;;2.15;1.95;;;21.60;90.70;;;;;;5098011;28;20100;-82
2021/08/19 09:29:37;;;;;;;2.35;1.75;;;21.60;90.70;;;;;;5100285;28;20039;-82
2021/08/19 09:32:13;;;;;;;2.15;1.73;;;21.60;90.90;;;;;;5101521;28;20031;-82
2021/08/19 09:34:41;;;;;;;1.55;1.38;;;21.70;90.60;;;;;;5106325;28;20271;-83
2021/08/19 09:37:12;;;;;;;2.65;2.10;;;21.80;90.30;;;;;;5107597;28;20040;-82
2021/08/19 09:39:43;;;;;;;2.90;2.15;;;21.70;90.30;;;;;;5107425;28;20035;-82
2021/08/19 09:42:10;;;;;;;4.85;2.78;;;21.80;90.10;;;;;;5115939;28;20039;-82
2021/08/19 09:44:37;;;;;;;2.75;2.47;;;21.90;90.00;;;;;;5118143;28;20369;-82
2021/08/19 09:47:04;;;;;;;2.83;2.10;;;21.90;90.00;;;;;;5106771;28;20050;-83
2021/08/19 09:49:34;;;;;;;2.80;2.20;;;21.90;90.10;;;;;;5106841;28;20035;-83
2021/08/19 09:52:11;;;;;;;3.15;2.33;;;22.00;90.40;;;;;;5096345;28;20057;-82
2021/08/19 09:54:41;;;;;;;3.42;1.88;;;22.00;90.10;;;;;;5094346;28;20124;-83
2021/08/19 09:57:09;;;;;;;2.63;1.92;;;21.90;90.10;;;;;;5108125;28;20076;-83
2021/08/19 09:59:39;;;;;;;2.47;1.90;;;21.80;90.30;;;;;;5114842;28;20046;-83
2021/08/19 10:02:06;;;;;;;2.60;2.13;;;21.70;90.50;;;;;;5120211;28;20047;-83
2021/08/19 10:04:32;;;;;;;2.53;1.88;;;21.50;90.70;;;;;;5115588;28;20055;-83
2021/08/19 10:06:58;;;;;;;2.63;1.95;;;21.40;91.00;;;;;;5096708;28;20024;-83
2021/08/19 10:09:24;;;;;;;2.33;1.90;;;21.20;91.40;;;;;;5093245;28;20043;-83
2021/08/19 10:11:52;;;;;;;2.55;2.15;;;21.20;91.70;;;;;;5093446;28;20047;-82
2021/08/19 10:14:29;;;;;;;3.15;2.25;;;21.00;92.00;;;;;;5092932;28;20044;-83
2021/08/19 10:16:55;;;;;;;3.28;2.42;;;20.90;92.30;;;;;;5093944;28;20050;-83
2021/08/19 10:19:41;;;;;;;3.08;2.20;;;20.80;92.70;;;;;;5093495;28;20043;-83
2021/08/19 10:22:14;;;;;;;2.22;1.88;;;20.70;93.20;;;;;;5095926;28;20040;-82
2021/08/19 10:24:42;;;;;;;2.42;1.90;;;20.70;93.20;;;;;;5098778;28;20043;-84
2021/08/19 10:27:22;;;;;;;2.88;1.52;;;20.70;93.40;;;;;;5103520;28;20040;-83
2021/08/19 10:30:04;;;;;;;2.33;1.80;;;20.70;93.00;;;;;;5103110;28;20031;-83
2021/08/19 10:32:40;;;;;;;3.75;1.95;;;20.80;93.00;;;;;;5094669;28;20050;-82
2021/08/19 10:35:13;;;;;;;3.03;1.83;;;20.80;93.20;;;;;;5112988;28;20047;-82
2021/08/19 10:37:45;;;;;;;3.83;2.28;;;20.80;93.10;;;;;;5114171;28;20069;-83
2021/08/19 10:40:31;;;;;;;7.82;2.50;;;20.80;93.30;;;;;;5084491;28;20574;-83
2021/08/19 10:43:00;;;;;;;2.85;1.85;;;20.80;93.00;;;;;;5095217;28;20104;-82
2021/08/19 10:45:29;;;;;;;2.40;1.85;;;20.80;92.90;;;;;;5101344;28;20048;-83
2021/08/19 10:48:23;;;;;;;2.22;1.80;;;20.80;92.90;;;;;;5099882;28;20036;-82
2021/08/19 10:50:49;;;;;;;1.95;1.63;;;20.80;93.00;;;;;;5102528;28;20082;-84
2021/08/19 10:53:20;;;;;;;2.55;1.90;;;20.80;93.00;;;;;;5102803;28;20024;-83
2021/08/19 10:55:52;;;;;;;8.35;2.72;;;20.80;92.80;;;;;;5102986;28;20080;-83
2021/08/19 10:58:35;;;;;;;3.42;2.60;;;20.90;92.60;;;;;;5101966;28;20043;-83
2021/08/19 11:01:01;;;;;;;2.80;1.75;;;20.80;92.50;;;;;;5102919;28;20035;-83
2021/08/19 11:03:36;;;;;;;2.25;1.70;;;20.80;92.80;;;;;;5102667;28;20035;-83
2021/08/19 11:06:04;;;;;;;2.50;1.90;;;20.80;93.00;;;;;;5101185;28;20046;-82
2021/08/19 11:08:44;;;;;;;2.38;1.95;;;20.80;92.60;;;;;;5102069;28;20040;-83
2021/08/19 11:11:12;;;;;;;2.83;2.22;;;20.80;92.90;;;;;;5101914;28;20040;-82
2021/08/19 11:13:39;;;;;;;2.40;1.85;;;20.80;92.90;;;;;;5103896;28;20456;-82
2021/08/19 11:16:10;;;;;;;3.28;2.25;;;20.80;92.70;;;;;;5102876;28;20390;-83
2021/08/19 11:18:38;;;;;;;1.95;1.65;;;20.80;92.60;;;;;;5102352;28;20043;-83
2021/08/19 11:21:05;;;;;;;2.10;1.65;;;20.70;92.80;;;;;;5102339;28;20429;-82
2021/08/19 11:23:39;;;;;;;2.13;1.38;;;20.70;92.80;;;;;;5102164;28;20131;-82
2021/08/19 11:26:11;;;;;;;1.65;1.02;;;20.80;92.80;;;;;;5102496;28;20071;-83
2021/08/19 11:28:43;;;;;;;1.63;1.23;;;20.90;91.90;;;;;;5120457;28;20039;-83
2021/08/19 11:31:10;;;;;;;1.55;1.00;;;20.80;91.90;;;;;;5122663;27;20100;-83
2021/08/19 11:33:38;;;;;;;2.58;1.25;;;20.80;92.30;;;;;;5123315;27;20032;-83
2021/08/19 11:36:04;;;;;;;2.15;1.60;;;20.80;92.10;;;;;;5122985;27;20031;-82
2021/08/19 11:38:29;;;;;;;1.80;1.33;;;20.80;92.40;;;;;;5120406;28;20047;-84
2021/08/19 11:40:57;;;;;;;3.38;0.93;;;20.80;93.10;;;;;;5119198;28;20421;-82
2021/08/19 11:43:28;;;;;;;1.52;1.15;;;20.70;93.40;;;;;;5118912;28;20039;-82
2021/08/19 11:46:03;;;;;;;1.90;0.93;;;20.60;93.70;;;;;;5119150;28;20089;-82
2021/08/19 11:48:30;;;;;;;1.60;0.93;;;20.60;94.00;;;;;;5120758;28;20059;-82
2021/08/19 11:50:58;;;;;;;2.08;1.50;;;20.60;94.30;;;;;;5120709;28;20061;-83
2021/08/19 11:53:24;;;;;;;4.65;1.55;;;20.60;93.80;;;;;;5118679;28;20035;-83
2021/08/19 11:55:50;;;;;;;1.67;1.50;;;20.70;93.90;;;;;;5119424;28;20110;-83
2021/08/19 11:58:24;;;;;;;2.05;1.38;;;20.70;93.70;;;;;;5118570;28;20058;-82
2021/08/19 12:01:04;;;;;;;2.65;1.48;;;20.80;93.60;;;;;;5119454;28;20047;-82
2021/08/19 12:03:40;;;;;;;1.33;1.23;;;20.90;93.20;;;;;;5118404;28;20040;-83
2021/08/19 12:06:14;;;;;;;5.22;1.40;;;21.00;92.80;;;;;;5118715;28;20044;-84
2021/08/19 12:08:47;;;;;;;2.25;1.45;;;21.00;92.60;;;;;;5118285;28;20031;-83
2021/08/19 12:11:17;;;;;;;2.10;1.60;;;21.00;92.60;;;;;;5119048;28;20040;-83
2021/08/19 12:13:43;;;;;;;1.50;1.33;;;20.90;93.00;;;;;;5118252;28;20035;-83
2021/08/19 12:16:10;;;;;;;2.13;1.60;;;21.00;93.10;;;;;;5118567;28;20032;-83
2021/08/19 12:18:35;;;;;;;2.25;1.60;;;20.90;94.10;;;;;;5118763;28;20114;-83
2021/08/19 12:21:19;;;;;;;3.30;1.90;;;20.80;94.40;;;;;;5118323;28;20480;-83
2021/08/19 12:23:48;;;;;;;2.97;2.08;;;20.70;95.00;;;;;;5135145;27;20066;-84
2021/08/19 12:26:16;;;;;;;2.22;1.90;;;20.70;95.50;;;;;;5118886;28;20027;-83
2021/08/19 12:28:56;;;;;;;2.63;2.03;;;20.70;95.70;;;;;;5118240;28;20039;-83
2021/08/19 12:31:22;;;;;;;2.67;2.10;;;20.70;96.00;;;;;;5117453;28;20046;-83
2021/08/19 12:34:01;;;;;;;2.58;2.08;;;20.60;96.10;;;;;;5117937;28;20542;-83
2021/08/19 12:36:30;;;;;;;3.95;3.15;;;20.60;96.40;;;;;;5125858;28;20439;-82
2021/08/19 12:39:16;;;;;;;3.20;2.70;;;20.50;96.40;;;;;;5117936;28;20035;-83
2021/08/19 12:41:42;;;;;;;2.80;2.50;;;20.40;96.30;;;;;;5118778;28;20031;-83
2021/08/19 12:44:10;;;;;;;3.58;2.00;;;20.40;97.10;;;;;;5117244;28;20047;-83
2021/08/19 12:46:41;;;;;;;1.35;1.20;;;20.40;96.50;;;;;;5118155;28;20297;-84
2021/08/19 12:49:36;;;;;;;1.88;1.40;;;20.50;96.50;;;;;;5117613;28;20028;-83